Time;durP1;ratioP1;P1;durP2;ratioP2;P2;SDS_P1;SDS_P2;PMS_P1;PMS_P2;Temp;Humidity;BMP_temperature;BMP_pressure;BME280_temperature;BME280_humidity;BME280_pressure;Samples;Min_cycle;Max_cycle;Signal;HPM_P1;HPM_P2
2023/06/13 00:00:33;;;;;;;1.90;0.73;;;;;;;14.92;100.00;100256.53;4981278;28;20162;-73
2023/06/13 00:03:00;;;;;;;3.50;0.82;;;;;;;15.01;100.00;100260.72;4983535;28;20079;-75
2023/06/13 00:05:26;;;;;;;0.98;0.65;;;;;;;15.08;100.00;100265.00;4986054;28;20053;-73
2023/06/13 00:07:52;;;;;;;1.73;0.73;;;;;;;15.12;100.00;100274.59;4982045;28;20051;-73
2023/06/13 00:10:17;;;;;;;2.80;0.93;;;;;;;14.94;100.00;100254.72;4987067;28;20057;-79
2023/06/13 00:12:44;;;;;;;1.15;0.65;;;;;;;14.83;100.00;100281.34;5005955;28;20046;-74
2023/06/13 00:15:11;;;;;;;1.83;0.70;;;;;;;14.77;100.00;100244.47;4984348;28;20047;-75
2023/06/13 00:17:38;;;;;;;1.38;0.68;;;;;;;14.45;100.00;100174.66;4977185;28;20043;-75
2023/06/13 00:20:05;;;;;;;2.03;1.17;;;;;;;14.19;100.00;100129.41;4987844;28;20062;-76
2023/06/13 00:22:31;;;;;;;2.03;0.93;;;;;;;14.44;100.00;100169.41;4984568;28;20043;-77
2023/06/13 00:24:57;;;;;;;4.63;1.17;;;;;;;14.49;100.00;100179.00;4992712;28;20101;-75
2023/06/13 00:27:22;;;;;;;1.23;0.65;;;;;;;14.97;100.00;100270.50;4995079;28;20422;-76
2023/06/13 00:29:48;;;;;;;1.58;0.77;;;;;;;14.67;100.00;100240.28;4986755;28;20042;-74
2023/06/13 00:32:14;;;;;;;1.92;0.90;;;;;;;14.60;100.00;100228.09;4974941;28;20043;-75
2023/06/13 00:34:40;;;;;;;1.58;0.85;;;;;;;13.98;100.00;100152.69;4986775;28;20053;-78
2023/06/13 00:37:09;;;;;;;1.15;0.80;;;;;;;14.25;100.00;100259.50;4983394;28;20050;-75
2023/06/13 00:39:36;;;;;;;3.70;0.85;;;;;;;14.38;100.00;100235.53;4984330;28;20042;-75
2023/06/13 00:42:01;;;;;;;2.47;0.82;;;;;;;14.54;100.00;100263.44;4977439;28;20057;-73
2023/06/13 00:44:27;;;;;;;3.10;0.90;;;;;;;14.49;100.00;100265.22;5013244;28;20029;-75
2023/06/13 00:46:53;;;;;;;2.05;0.93;;;;;;;13.81;100.00;100174.06;4985573;28;20054;-74
2023/06/13 00:49:19;;;;;;;4.20;0.98;;;;;;;14.10;100.00;100244.81;4983910;28;20054;-74
2023/06/13 00:51:46;;;;;;;1.40;0.75;;;;;;;14.14;100.00;100241.22;4981284;28;20078;-74
2023/06/13 00:54:16;;;;;;;1.67;1.08;;;;;;;13.62;100.00;100130.47;4985610;28;20050;-75
2023/06/13 00:56:44;;;;;;;1.02;0.68;;;;;;;14.49;100.00;100238.81;4982684;28;20038;-75
2023/06/13 00:59:11;;;;;;;4.35;1.73;;;;;;;14.39;100.00;100226.72;4984267;28;20065;-76
2023/06/13 01:01:40;;;;;;;1.52;0.80;;;;;;;14.31;100.00;100218.94;4977863;28;20504;-73
2023/06/13 01:04:07;;;;;;;2.08;1.02;;;;;;;13.28;100.00;100044.94;4981678;28;20153;-75
2023/06/13 01:06:38;;;;;;;1.60;0.85;;;;;;;14.33;100.00;100220.66;4977065;28;20072;-75
2023/06/13 01:09:05;;;;;;;3.22;1.38;;;;;;;14.40;100.00;100242.53;4977603;28;20109;-74
2023/06/13 01:11:56;;;;;;;2.67;0.90;;;;;;;13.76;100.00;100122.31;4983677;28;20034;-74
2023/06/13 01:14:51;;;;;;;3.15;1.35;;;;;;;14.24;100.00;100235.78;4980611;28;20066;-77
2023/06/13 01:17:27;;;;;;;2.22;0.82;;;;;;;14.23;100.00;100205.88;4979743;28;20077;-75
2023/06/13 01:19:59;;;;;;;2.33;1.20;;;;;;;14.20;100.00;100240.22;4982751;28;20050;-74
2023/06/13 01:22:52;;;;;;;1.65;0.88;;;;;;;14.37;100.00;100232.00;4987390;28;20093;-74
2023/06/13 01:25:37;;;;;;;1.27;0.75;;;;;;;13.78;100.00;100102.94;4980101;28;20050;-75
2023/06/13 01:28:05;;;;;;;1.70;0.77;;;;;;;14.11;100.00;100187.63;4980421;28;20046;-74
2023/06/13 01:30:31;;;;;;;4.03;1.35;;;;;;;14.11;100.00;100235.13;4975964;28;20050;-74
2023/06/13 01:32:58;;;;;;;1.55;0.80;;;;;;;14.28;100.00;100216.34;4984884;28;20759;-75
2023/06/13 01:35:25;;;;;;;1.73;1.00;;;;;;;13.79;100.00;100120.50;4981176;28;20038;-73
2023/06/13 01:37:50;;;;;;;1.65;0.95;;;;;;;14.03;100.00;100155.25;4980331;28;20057;-75
2023/06/13 01:40:16;;;;;;;1.98;1.00;;;;;;;12.85;100.00;100048.25;4981466;28;20074;-73
2023/06/13 01:42:43;;;;;;;2.88;0.75;;;;;;;13.93;100.00;100180.94;4979214;28;20522;-73
2023/06/13 01:45:10;;;;;;;1.85;0.90;;;;;;;13.70;100.00;100144.41;5013813;28;20050;-73
2023/06/13 01:48:00;;;;;;;2.10;1.23;;;;;;;13.41;100.00;100105.31;4981314;28;20045;-75
2023/06/13 01:50:50;;;;;;;2.47;1.25;;;;;;;14.32;100.00;100237.38;4984223;28;20509;-72
2023/06/13 01:53:28;;;;;;;1.20;0.90;;;;;;;13.69;100.00;100124.19;4977880;28;20051;-77
2023/06/13 01:56:03;;;;;;;2.90;0.80;;;;;;;13.63;100.00;100114.63;4982061;28;20069;-76
2023/06/13 01:58:36;;;;;;;1.88;1.27;;;;;;;14.19;100.00;100254.34;4980497;28;20053;-74
2023/06/13 02:01:04;;;;;;;2.17;1.25;;;;;;;14.09;100.00;100229.88;4984706;28;20492;-75
2023/06/13 02:03:31;;;;;;;2.97;1.17;;;;;;;13.28;100.00;100095.00;4978966;28;20047;-73
2023/06/13 02:05:57;;;;;;;3.03;1.20;;;;;;;14.16;100.00;100241.19;4979858;28;20629;-73
2023/06/13 02:08:22;;;;;;;1.15;0.70;;;;;;;13.45;100.00;100131.59;4975821;28;20052;-74
2023/06/13 02:10:50;;;;;;;1.33;0.70;;;;;;;13.63;100.00;100141.00;4979272;28;20046;-75
2023/06/13 02:13:15;;;;;;;1.48;1.02;;;;;;;13.34;100.00;100144.09;4975997;28;20049;-73
2023/06/13 02:15:41;;;;;;;2.08;1.08;;;;;;;14.02;100.00;100220.31;4980364;28;20406;-74
2023/06/13 02:18:07;;;;;;;4.97;1.92;;;;;;;13.51;100.00;100138.56;4983160;28;20124;-74
2023/06/13 02:20:34;;;;;;;1.27;0.75;;;;;;;14.13;100.00;100209.56;4980094;28;20041;-73
2023/06/13 02:23:02;;;;;;;1.08;0.75;;;;;;;14.13;100.00;100230.69;4975391;28;20055;-75
2023/06/13 02:25:27;;;;;;;2.22;1.10;;;;;;;14.14;100.00;100248.25;4977024;28;20093;-75
2023/06/13 02:27:53;;;;;;;6.55;1.20;;;;;;;14.27;100.00;100241.88;4981314;28;20054;-76
2023/06/13 02:30:18;;;;;;;1.42;0.77;;;;;;;14.05;100.00;100224.69;4981122;28;20141;-72
2023/06/13 02:32:46;;;;;;;3.00;1.15;;;;;;;13.39;100.00;100134.38;4981958;28;20125;-75
2023/06/13 02:35:13;;;;;;;1.75;1.02;;;;;;;14.03;100.00;100256.38;4972694;28;20046;-78
2023/06/13 02:37:39;;;;;;;2.75;0.98;;;;;;;14.06;100.00;100239.59;4982834;28;20608;-73
2023/06/13 02:40:05;;;;;;;1.63;0.80;;;;;;;13.21;100.00;100134.63;4978473;28;20111;-76
2023/06/13 02:42:31;;;;;;;2.10;1.13;;;;;;;13.33;100.00;100133.59;4976793;28;20523;-73
2023/06/13 02:44:57;;;;;;;1.83;0.82;;;;;;;14.04;100.00;100255.44;4978700;28;20042;-77
2023/06/13 02:47:22;;;;;;;2.42;1.40;;;;;;;13.43;100.00;100129.91;4976580;28;20411;-74
2023/06/13 02:49:48;;;;;;;1.52;0.95;;;;;;;13.47;100.00;100169.34;4977973;28;20059;-74
2023/06/13 02:52:14;;;;;;;1.55;0.60;;;;;;;13.28;100.00;100144.19;4975575;28;20097;-73
2023/06/13 02:54:40;;;;;;;2.10;1.17;;;;;;;13.26;100.00;100140.69;4979015;28;20078;-74
2023/06/13 02:57:06;;;;;;;3.53;1.38;;;;;;;13.91;100.00;100246.88;4978491;28;20460;-75
2023/06/13 02:59:32;;;;;;;3.92;1.13;;;;;;;13.82;100.00;100262.84;4979987;28;20030;-76
2023/06/13 03:01:58;;;;;;;3.65;1.08;;;;;;;13.59;100.00;100255.28;4977683;28;20054;-76
2023/06/13 03:04:24;;;;;;;3.88;1.00;;;;;;;12.92;100.00;100135.03;4984194;28;20100;-78
2023/06/13 03:06:50;;;;;;;2.33;1.15;;;;;;;13.60;100.00;100222.78;4977866;28;20050;-77
2023/06/13 03:09:16;;;;;;;1.48;0.80;;;;;;;13.51;100.00;100233.47;4976017;28;20054;-78
2023/06/13 03:11:41;;;;;;;1.58;0.85;;;;;;;13.79;100.00;100262.03;4973571;28;20415;-77
2023/06/13 03:14:07;;;;;;;3.08;1.02;;;;;;;13.82;100.00;100244.41;4981420;28;20394;-77
2023/06/13 03:16:35;;;;;;;1.80;1.52;;;;;;;14.02;100.00;100277.47;4973648;28;20148;-77
2023/06/13 03:19:02;;;;;;;3.28;1.20;;;;;;;13.68;100.00;100235.84;4979762;28;20062;-75
2023/06/13 03:21:28;;;;;;;2.33;1.70;;;;;;;13.47;100.00;100247.56;4982061;28;20047;-77
2023/06/13 03:23:54;;;;;;;2.47;1.42;;;;;;;13.47;100.00;100250.22;4988288;28;20117;-79
2023/06/13 03:26:19;;;;;;;1.75;0.88;;;;;;;13.74;100.00;100262.09;4988497;28;20477;-79
2023/06/13 03:28:45;;;;;;;1.70;1.17;;;;;;;13.79;100.00;100230.38;4988802;28;20050;-77
2023/06/13 03:31:11;;;;;;;1.05;0.75;;;;;;;13.28;100.00;100165.28;4985664;28;20054;-77
2023/06/13 03:33:37;;;;;;;1.88;1.02;;;;;;;13.23;100.00;100140.75;4990673;28;20049;-77
2023/06/13 03:36:03;;;;;;;3.28;1.08;;;;;;;14.06;100.00;100287.09;4985545;28;20856;-76
2023/06/13 03:38:28;;;;;;;3.05;1.65;;;;;;;13.57;100.00;100172.72;4992708;28;20030;-78
2023/06/13 03:40:54;;;;;;;2.38;1.13;;;;;;;14.13;100.00;100292.25;4985112;28;20180;-77
2023/06/13 03:43:20;;;;;;;2.05;1.20;;;;;;;13.59;100.00;100241.25;4992956;28;20493;-75
2023/06/13 03:45:46;;;;;;;2.17;0.88;;;;;;;13.98;100.00;100278.41;4983158;28;20121;-75
2023/06/13 03:48:11;;;;;;;1.23;0.90;;;;;;;13.54;100.00;100185.09;4993007;28;20687;-75
2023/06/13 03:50:37;;;;;;;2.15;1.20;;;;;;;13.94;100.00;100281.13;4992358;28;20034;-75
2023/06/13 03:53:02;;;;;;;2.08;1.02;;;;;;;13.19;100.00;100152.22;4992540;28;20058;-77
2023/06/13 03:55:29;;;;;;;5.70;1.60;;;;;;;13.57;100.00;100175.34;4985223;28;20042;-74
2023/06/13 03:57:55;;;;;;;3.17;1.17;;;;;;;13.47;100.00;100165.88;4992829;28;20093;-75
2023/06/13 04:00:21;;;;;;;2.63;1.60;;;;;;;13.88;100.00;100312.00;4985653;28;20038;-75
2023/06/13 04:02:47;;;;;;;2.22;1.23;;;;;;;13.86;100.00;100266.31;4980715;28;20637;-77
2023/06/13 04:05:13;;;;;;;5.88;1.52;;;;;;;14.33;100.00;100275.22;4985387;28;20077;-76
2023/06/13 04:07:39;;;;;;;3.35;2.00;;;;;;;13.76;100.00;100170.66;4988828;28;20046;-76
2023/06/13 04:10:05;;;;;;;2.45;0.90;;;;;;;13.99;100.00;100185.22;4988609;28;20765;-75
2023/06/13 04:12:31;;;;;;;2.15;1.35;;;;;;;14.38;100.00;100269.84;4985082;28;20065;-76
2023/06/13 04:14:57;;;;;;;1.70;1.10;;;;;;;14.58;100.00;100286.22;4988026;28;20047;-77
2023/06/13 04:17:23;;;;;;;3.53;1.25;;;;;;;12.73;100.00;99934.34;4984024;28;20038;-78
2023/06/13 04:19:49;;;;;;;4.65;1.63;;;;;;;14.06;100.00;100163.09;4987827;28;20122;-79
2023/06/13 04:22:16;;;;;;;1.88;1.17;;;;;;;14.30;100.00;100181.09;4982959;28;20042;-75
2023/06/13 04:24:43;;;;;;;2.88;1.55;;;;;;;14.11;100.00;100159.47;4983197;28;20071;-76
2023/06/13 04:27:13;;;;;;;2.00;1.27;;;;;;;14.94;100.00;100273.22;4982462;28;20042;-74
2023/06/13 04:29:43;;;;;;;4.25;1.30;;;;;;;14.61;100.00;100199.03;4989262;28;20033;-75
2023/06/13 04:32:13;;;;;;;3.53;1.50;;;;;;;15.17;100.00;100280.66;4982800;28;20065;-76
2023/06/13 04:34:52;;;;;;;2.65;1.38;;;;;;;15.16;100.00;100295.63;4981423;28;20096;-77
2023/06/13 04:37:23;;;;;;;2.75;1.45;;;;;;;14.97;100.00;100259.94;4980186;28;20057;-77
2023/06/13 04:39:53;;;;;;;2.72;1.00;;;;;;;14.92;100.00;100233.59;4984015;28;20790;-75
2023/06/13 04:42:24;;;;;;;2.08;1.17;;;;;;;14.82;100.00;100197.72;4977767;28;20047;-78
2023/06/13 04:44:52;;;;;;;2.35;1.50;;;;;;;14.73;100.00;100188.22;4984751;28;20038;-73
2023/06/13 04:47:19;;;;;;;4.03;1.17;;;;;;;15.38;100.00;100311.94;4976317;28;20042;-75
2023/06/13 04:49:45;;;;;;;2.33;0.90;;;;;;;15.23;100.00;100325.47;5012170;28;20382;-75
2023/06/13 04:52:18;;;;;;;2.42;1.33;;;;;;;14.51;100.00;100197.44;4979155;28;20404;-74
2023/06/13 04:54:45;;;;;;;2.63;1.10;;;;;;;14.82;100.00;100186.25;4979758;28;20046;-73
2023/06/13 04:57:12;;;;;;;5.10;1.60;;;;;;;15.29;100.00;100301.56;4978549;28;20043;-72
2023/06/13 04:59:38;;;;;;;2.55;1.45;;;;;;;15.75;100.00;100310.28;4962716;28;20023;-74
2023/06/13 05:02:04;;;;;;;3.35;1.25;;;;;;;15.76;100.00;100312.88;4965157;28;20038;-73
2023/06/13 05:04:30;;;;;;;3.38;2.05;;;;;;;15.05;100.00;100177.84;4965090;28;20071;-73
2023/06/13 05:06:57;;;;;;;2.42;1.42;;;;;;;15.81;100.00;100279.25;4976501;28;20042;-73
2023/06/13 05:09:25;;;;;;;1.10;0.65;;;;;;;14.84;100.00;100110.50;4986283;28;20042;-74
2023/06/13 05:11:50;;;;;;;5.75;1.52;;;;;;;15.73;100.00;100281.22;4985922;28;20418;-73
2023/06/13 05:14:15;;;;;;;4.50;1.83;;;;;;;15.67;100.00;100235.50;4987002;28;20023;-74
2023/06/13 05:16:43;;;;;;;1.70;1.35;;;;;;;15.52;100.00;100205.88;4983635;28;20588;-73
2023/06/13 05:19:09;;;;;;;1.77;1.13;;;;;;;15.56;100.00;100196.06;4987119;28;20504;-72
2023/06/13 05:21:34;;;;;;;2.60;1.35;;;;;;;15.19;100.00;100208.38;4987215;28;20047;-73
2023/06/13 05:24:00;;;;;;;4.53;1.20;;;;;;;15.69;100.00;100295.38;4987199;28;20169;-74
2023/06/13 05:26:27;;;;;;;3.35;1.55;;;;;;;15.54;100.00;100208.44;4987361;28;20026;-74
2023/06/13 05:28:53;;;;;;;2.95;1.65;;;;;;;15.66;100.00;100209.94;4985454;28;20066;-74
2023/06/13 05:31:18;;;;;;;3.85;1.15;;;;;;;16.10;100.00;100309.44;4986833;28;20046;-73
2023/06/13 05:33:44;;;;;;;4.63;1.23;;;;;;;15.83;100.00;100221.03;4986438;28;20719;-73
2023/06/13 05:36:09;;;;;;;2.38;1.02;;;;;;;15.72;100.00;100303.28;4974458;28;20065;-74
2023/06/13 05:38:36;;;;;;;2.35;2.10;;;;;;;15.62;100.00;100214.44;4961963;28;20505;-72
2023/06/13 05:41:01;;;;;;;4.63;1.48;;;;;;;16.10;100.00;100319.16;4966783;28;20039;-73
2023/06/13 05:43:27;;;;;;;1.75;0.90;;;;;;;15.90;100.00;100302.00;4980832;28;20483;-74
2023/06/13 05:45:52;;;;;;;1.27;0.63;;;;;;;15.29;100.00;100255.72;4986559;28;20049;-75
2023/06/13 05:48:18;;;;;;;1.92;0.95;;;;;;;15.15;100.00;100200.53;4986469;28;20462;-74
2023/06/13 05:50:43;;;;;;;1.95;0.90;;;;;;;15.47;100.00;100212.16;4986694;28;20018;-73
2023/06/13 05:53:10;;;;;;;2.40;1.38;;;;;;;16.27;100.00;100303.72;4987091;28;20056;-73
2023/06/13 05:55:35;;;;;;;2.28;1.17;;;;;;;15.47;100.00;100223.59;4982950;28;20467;-74
2023/06/13 05:58:01;;;;;;;1.73;1.10;;;;;;;16.32;100.00;100322.13;4972860;28;20070;-74
2023/06/13 06:00:26;;;;;;;2.20;1.15;;;;;;;15.71;100.00;100202.78;4965457;28;20039;-74
2023/06/13 06:02:52;;;;;;;1.50;0.82;;;;;;;15.67;100.00;100209.03;4961925;28;20034;-74
2023/06/13 06:05:19;;;;;;;3.08;1.30;;;;;;;16.50;100.00;100342.00;4961275;28;20042;-74
2023/06/13 06:07:45;;;;;;;1.48;0.90;;;;;;;17.09;100.00;100156.63;4977392;28;20054;-71
2023/06/13 06:10:11;;;;;;;2.05;0.88;;;;;;;18.49;100.00;100335.28;4979257;28;20473;-70
2023/06/13 06:12:38;;;;;;;2.47;1.20;;;;;;;18.94;100.00;100348.81;4977967;28;20062;-70
2023/06/13 06:15:05;;;;;;;2.60;1.15;;;;;;;19.03;100.00;100211.94;4983791;28;20053;-70
2023/06/13 06:17:30;;;;;;;1.30;0.75;;;;;;;19.63;100.00;100317.88;4984562;28;20103;-70
2023/06/13 06:19:56;;;;;;;0.82;0.57;;;;;;;18.43;100.00;100259.31;4979739;28;20039;-71
2023/06/13 06:22:21;;;;;;;2.25;1.20;;;;;;;19.87;100.00;100346.22;4998331;28;20057;-70
2023/06/13 06:24:47;;;;;;;1.13;0.82;;;;;;;18.40;100.00;100272.66;4982746;28;20066;-71
2023/06/13 06:27:12;;;;;;;2.60;1.48;;;;;;;18.29;100.00;100235.00;4980534;28;20058;-71
2023/06/13 06:29:44;;;;;;;1.77;1.17;;;;;;;19.15;100.00;100355.13;4983205;28;20030;-70
2023/06/13 06:32:10;;;;;;;1.75;1.00;;;;;;;18.02;100.00;100314.66;4978843;28;20047;-69
2023/06/13 06:34:37;;;;;;;2.58;1.35;;;;;;;18.73;100.00;100344.19;4978893;28;20422;-71
2023/06/13 06:37:03;;;;;;;6.25;3.08;;;;;;;19.21;100.00;100355.84;4983173;28;20395;-71
2023/06/13 06:39:29;;;;;;;6.90;2.33;;;;;;;18.88;100.00;100266.59;4983275;28;20057;-69
2023/06/13 06:41:54;;;;;;;3.38;2.60;;;;;;;19.39;100.00;100356.00;4984098;28;20030;-70
2023/06/13 06:44:20;;;;;;;3.70;2.55;;;;;;;19.25;100.00;100376.94;4985617;28;20117;-70
2023/06/13 06:46:45;;;;;;;2.78;1.33;;;;;;;18.68;100.00;100370.94;5013558;28;20414;-70
2023/06/13 06:49:11;;;;;;;1.90;0.77;;;;;;;18.30;100.00;100242.91;4981892;28;20038;-70
2023/06/13 06:51:36;;;;;;;8.20;3.80;;;;;;;18.68;100.00;100261.97;4984175;28;20038;-72
2023/06/13 06:54:02;;;;;;;3.90;2.45;;;;;;;19.02;100.00;100342.34;4985492;28;20482;-67
2023/06/13 06:56:27;;;;;;;7.65;4.53;;;;;;;19.76;100.00;100341.34;4981197;28;20626;-70
2023/06/13 06:58:53;;;;;;;5.95;3.08;;;;;;;19.44;100.00;100353.19;4979384;28;20792;-71
2023/06/13 07:01:18;;;;;;;4.78;1.27;;;;;;;18.97;100.00;100252.94;4982124;28;20062;-70
2023/06/13 07:03:47;;;;;;;8.30;6.20;;;;;;;20.08;100.00;100352.50;4984978;28;20052;-70
2023/06/13 07:06:12;;;;;;;5.07;3.85;;;;;;;18.88;100.00;100341.03;4984188;28;20482;-69
2023/06/13 07:08:38;;;;;;;8.10;4.90;;;;;;;19.04;100.00;100297.94;4988696;28;20041;-69
2023/06/13 07:11:04;;;;;;;4.30;2.78;;;;;;;18.70;100.00;100285.81;4989148;28;20054;-69
2023/06/13 07:13:30;;;;;;;6.05;4.32;;;;;;;18.22;100.00;100234.34;4986950;28;20058;-69
2023/06/13 07:15:55;;;;;;;2.22;1.23;;;;;;;18.72;100.00;100321.19;4987532;28;20050;-69
2023/06/13 07:18:21;;;;;;;4.55;2.63;;;;;;;18.79;100.00;100349.31;4991574;28;20050;-69
2023/06/13 07:20:47;;;;;;;2.85;1.52;;;;;;;19.25;100.00;100325.53;4989458;28;20136;-69
2023/06/13 07:23:12;;;;;;;5.05;1.55;;;;;;;19.33;100.00;100307.47;4992225;28;20038;-70
2023/06/13 07:25:42;;;;;;;2.55;1.25;;;;;;;19.87;100.00;100356.00;4991310;28;20052;-69
2023/06/13 07:28:08;;;;;;;2.50;1.40;;;;;;;18.33;100.00;100297.72;4991516;28;20058;-71
2023/06/13 07:30:33;;;;;;;3.03;1.92;;;;;;;18.08;100.00;100332.22;4991741;28;20133;-69
2023/06/13 07:32:59;;;;;;;3.90;2.33;;;;;;;18.09;100.00;100349.88;4991067;28;20118;-68
2023/06/13 07:35:24;;;;;;;2.55;1.25;;;;;;;18.45;100.00;100230.00;4987011;28;20144;-68
2023/06/13 07:37:50;;;;;;;2.58;1.48;;;;;;;19.44;100.00;100241.41;4991393;28;20062;-70
2023/06/13 07:40:17;;;;;;;8.80;6.32;;;;;;;20.28;100.00;100292.22;4990779;28;20046;-70
2023/06/13 07:42:42;;;;;;;8.95;6.30;;;;;;;20.08;100.00;100340.97;4987828;28;20487;-71
2023/06/13 07:45:08;;;;;;;3.05;1.60;;;;;;;18.72;100.00;100252.09;5019172;28;20125;-68
2023/06/13 07:47:35;;;;;;;2.55;1.38;;;;;;;18.97;100.00;100323.88;4989904;28;20038;-68
2023/06/13 07:50:00;;;;;;;3.40;1.25;;;;;;;19.15;100.00;100343.59;4984255;28;20073;-69
2023/06/13 07:52:26;;;;;;;2.42;1.73;;;;;;;19.01;100.00;100345.91;4991525;28;20038;-69
2023/06/13 07:54:51;;;;;;;1.45;0.85;;;;;;;17.88;100.00;100245.22;4990043;28;20054;-69
2023/06/13 07:57:17;;;;;;;3.63;1.63;;;;;;;18.97;100.00;100348.69;4990404;28;20509;-69
2023/06/13 07:59:42;;;;;;;2.85;1.55;;;;;;;19.04;100.00;100349.34;4983817;28;20493;-73
2023/06/13 08:02:08;;;;;;;3.80;1.17;;;;;;;18.89;100.00;100313.50;4988108;28;20049;-69
2023/06/13 08:04:33;;;;;;;2.67;1.02;;;;;;;18.40;100.00;100190.31;4983417;28;20106;-73
2023/06/13 08:06:59;;;;;;;3.63;2.08;;;;;;;18.60;100.00;100244.56;4981525;28;20141;-75
2023/06/13 08:09:24;;;;;;;2.85;1.85;;;;;;;18.86;100.00;100257.78;4990546;28;20049;-76
2023/06/13 08:11:50;;;;;;;2.17;1.38;;;;;;;19.42;100.00;100333.75;4985969;28;20069;-75
2023/06/13 08:14:15;;;;;;;2.38;1.42;;;;;;;19.52;100.00;100345.75;4988308;28;20030;-74
2023/06/13 08:16:42;;;;;;;2.28;1.10;;;;;;;19.41;100.00;100260.16;4987188;28;20050;-73
2023/06/13 08:19:08;;;;;;;2.50;1.13;;;;;;;19.44;100.00;100252.06;4982800;28;20104;-75
2023/06/13 08:21:33;;;;;;;4.18;2.90;;;;;;;19.91;100.00;100320.34;4984680;28;20038;-74
2023/06/13 08:23:59;;;;;;;4.63;1.98;;;;;;;19.94;100.00;100328.22;4985444;28;20121;-74
2023/06/13 08:26:26;;;;;;;5.15;1.48;;;;;;;19.82;100.00;100326.91;4987063;28;20034;-75
2023/06/13 08:28:51;;;;;;;2.13;1.00;;;;;;;19.62;100.00;100263.78;4986452;28;20152;-74
2023/06/13 08:31:23;;;;;;;1.55;1.02;;;;;;;20.10;100.00;100318.66;4981423;28;20069;-75
2023/06/13 08:33:50;;;;;;;3.08;1.25;;;;;;;19.11;100.00;100231.16;4982803;28;20054;-73
2023/06/13 08:36:15;;;;;;;2.63;1.05;;;;;;;19.21;100.00;100226.34;4987153;28;20042;-75
2023/06/13 08:38:41;;;;;;;2.65;1.45;;;;;;;19.58;100.00;100324.25;4986174;28;20030;-74
2023/06/13 08:41:06;;;;;;;3.60;1.38;;;;;;;19.37;100.00;100224.81;4984820;28;20038;-73
2023/06/13 08:43:32;;;;;;;2.58;1.40;;;;;;;19.73;100.00;100223.44;4978791;28;20407;-75
2023/06/13 08:45:58;;;;;;;5.22;2.67;;;;;;;20.56;100.00;100302.59;4985645;28;20046;-72
2023/06/13 08:48:23;;;;;;;3.40;1.70;;;;;;;20.19;100.00;100224.19;4986303;28;20042;-73
2023/06/13 08:50:49;;;;;;;2.22;1.17;;;;;;;21.70;100.00;100346.38;4986794;28;20101;-72
2023/06/13 08:53:17;;;;;;;4.50;2.38;;;;;;;21.39;100.00;100224.13;4984555;28;20038;-73
2023/06/13 08:55:43;;;;;;;2.95;1.33;;;;;;;21.35;100.00;100156.66;4984211;28;20046;-74
2023/06/13 08:58:13;;;;;;;2.60;1.42;;;;;;;21.36;100.00;100302.53;4985113;28;20072;-78
2023/06/13 09:00:40;;;;;;;2.10;1.20;;;;;;;21.22;100.00;100296.97;4979067;28;20122;-74
2023/06/13 09:03:12;;;;;;;1.90;1.30;;;;;;;19.98;100.00;100216.16;4983895;28;20510;-74
2023/06/13 09:05:38;;;;;;;2.45;1.33;;;;;;;20.72;100.00;100142.78;4982607;28;20037;-73
2023/06/13 09:08:05;;;;;;;4.10;1.63;;;;;;;21.68;100.00;100214.72;4982596;28;20046;-75
2023/06/13 09:10:32;;;;;;;3.97;1.63;;;;;;;22.60;98.77;100286.75;4986662;28;20046;-75
2023/06/13 09:12:58;;;;;;;1.80;1.00;;;;;;;22.27;100.00;100315.13;4977773;28;20142;-74
2023/06/13 09:15:26;;;;;;;2.30;1.10;;;;;;;21.81;97.37;100217.66;4986732;28;20057;-75
2023/06/13 09:17:53;;;;;;;2.83;1.63;;;;;;;22.18;100.00;100280.81;4985755;28;20073;-74
2023/06/13 09:20:20;;;;;;;2.03;1.05;;;;;;;22.03;100.00;100324.31;4980904;28;20042;-73
2023/06/13 09:22:46;;;;;;;2.05;1.25;;;;;;;22.23;94.17;100307.34;4986942;28;20077;-74
2023/06/13 09:25:16;;;;;;;3.15;1.58;;;;;;;21.62;100.00;100306.69;4986308;28;20049;-75
2023/06/13 09:27:41;;;;;;;2.20;1.30;;;;;;;21.44;100.00;100280.84;4982883;28;20083;-73
2023/06/13 09:30:08;;;;;;;1.70;1.10;;;;;;;22.01;99.58;100248.72;4985151;28;20363;-73
2023/06/13 09:32:35;;;;;;;4.50;1.23;;;;;;;23.84;90.92;100284.53;4983694;28;20070;-76
2023/06/13 09:35:04;;;;;;;2.15;1.20;;;;;;;23.27;89.28;100280.53;4975418;28;20055;-77
2023/06/13 09:37:29;;;;;;;2.88;1.75;;;;;;;23.37;83.98;100254.94;4975388;28;20051;-76
2023/06/13 09:39:55;;;;;;;2.92;1.38;;;;;;;24.71;77.33;100287.44;5012308;28;20062;-74
2023/06/13 09:42:22;;;;;;;8.43;2.28;;;;;;;24.26;75.70;100215.97;4981850;28;20078;-73
2023/06/13 09:44:49;;;;;;;2.75;1.25;;;;;;;24.00;76.76;100278.19;4979427;28;20040;-74
2023/06/13 09:47:22;;;;;;;2.83;1.38;;;;;;;22.84;85.69;100205.19;4981594;28;20062;-74
2023/06/13 09:49:58;;;;;;;1.85;0.98;;;;;;;23.52;85.13;100218.38;4975602;28;20043;-73
2023/06/13 09:52:28;;;;;;;2.90;1.48;;;;;;;23.40;82.16;100248.56;4978802;28;20069;-72
2023/06/13 09:54:54;;;;;;;8.20;1.75;;;;;;;23.29;80.40;100210.78;4981070;28;20073;-72
2023/06/13 09:57:21;;;;;;;3.53;1.77;;;;;;;22.92;90.96;100275.22;4980906;28;20050;-72
2023/06/13 09:59:48;;;;;;;2.65;1.30;;;;;;;23.94;82.89;100243.69;4982608;28;20046;-72
2023/06/13 10:02:21;;;;;;;2.38;1.35;;;;;;;22.26;86.17;100205.59;4998101;28;20030;-72
2023/06/13 10:04:50;;;;;;;1.73;1.17;;;;;;;24.15;85.27;100259.47;4986084;28;20037;-72
2023/06/13 10:07:16;;;;;;;3.40;1.83;;;;;;;23.34;80.62;100254.25;4977846;28;20442;-71
2023/06/13 10:09:41;;;;;;;2.17;1.40;;;;;;;25.19;74.60;100260.34;4979325;28;20081;-72
2023/06/13 10:12:11;;;;;;;3.40;1.58;;;;;;;25.47;68.93;100240.63;4980493;28;20049;-72
2023/06/13 10:14:42;;;;;;;1.92;1.10;;;;;;;24.08;70.16;100161.63;4980132;28;20776;-71
2023/06/13 10:17:11;;;;;;;3.47;1.77;;;;;;;24.22;74.60;100165.16;4982049;28;20057;-72
2023/06/13 10:19:39;;;;;;;3.67;1.67;;;;;;;25.72;66.18;100222.91;4980936;28;20058;-72
2023/06/13 10:22:06;;;;;;;2.15;1.30;;;;;;;24.02;67.34;100195.88;4979426;28;20050;-74
2023/06/13 10:24:35;;;;;;;1.30;0.95;;;;;;;22.51;77.07;100141.88;4998292;28;20057;-72
2023/06/13 10:27:02;;;;;;;2.03;1.40;;;;;;;24.26;78.54;100246.31;4981832;28;20053;-72
2023/06/13 10:29:46;;;;;;;2.53;1.13;;;;;;;23.52;79.68;100242.50;4980748;28;20057;-71
2023/06/13 10:32:15;;;;;;;2.83;1.90;;;;;;;23.67;76.93;100251.50;4983400;28;20117;-72
2023/06/13 10:35:01;;;;;;;1.95;1.13;;;;;;;23.99;74.98;100233.56;4980146;28;20050;-73
2023/06/13 10:37:32;;;;;;;1.92;1.25;;;;;;;24.11;76.20;100244.53;4979782;28;20101;-72
2023/06/13 10:40:36;;;;;;;2.17;1.33;;;;;;;23.68;75.69;100244.31;4983482;28;20438;-74
2023/06/13 10:43:18;;;;;;;2.30;1.50;;;;;;;22.68;80.39;100247.94;4978793;28;20426;-74
2023/06/13 10:45:45;;;;;;;1.42;0.98;;;;;;;24.37;70.67;100242.97;4978099;28;20567;-73
2023/06/13 10:48:12;;;;;;;2.58;1.15;;;;;;;24.16;66.94;100152.16;4980668;28;20458;-73
2023/06/13 10:50:40;;;;;;;4.30;1.75;;;;;;;25.31;63.68;100223.78;4981981;28;20034;-73
2023/06/13 10:53:08;;;;;;;2.95;1.58;;;;;;;26.11;61.31;100232.88;4979216;28;20498;-74
2023/06/13 10:55:38;;;;;;;5.18;1.65;;;;;;;25.42;63.44;100200.63;4980921;28;20049;-74
2023/06/13 10:58:13;;;;;;;2.00;1.35;;;;;;;24.94;66.52;100223.44;4978583;28;20093;-74
2023/06/13 11:00:39;;;;;;;2.25;1.42;;;;;;;24.09;68.04;100163.31;4994137;28;20065;-71
2023/06/13 11:03:12;;;;;;;3.70;1.58;;;;;;;24.23;67.36;100174.97;4984425;28;20053;-72
2023/06/13 11:05:48;;;;;;;;;;;;;;;24.73;62.91;100225.63;4979122;28;20036;-72
2023/06/13 11:08:16;;;;;;;2.30;1.63;;;;;;;24.39;65.24;100152.56;4984991;28;19918;-71
2023/06/13 11:10:44;;;;;;;1.17;0.85;;;;;;;25.34;61.95;100210.19;4984967;28;20066;-73
2023/06/13 11:13:23;;;;;;;2.90;1.58;;;;;;;25.28;61.63;100128.16;4979554;28;20042;-73
2023/06/13 11:15:52;;;;;;;2.08;1.13;;;;;;;24.70;64.52;100181.06;4981961;28;20140;-74
2023/06/13 11:18:21;;;;;;;4.43;1.55;;;;;;;24.09;68.99;100212.47;4984515;28;20050;-71
2023/06/13 11:20:57;;;;;;;2.13;1.20;;;;;;;23.72;71.52;100211.03;4984490;28;20034;-69